sensor_id;sensor_type;location;lat;lon;timestamp;pressure;altitude;pressure_sealevel;temperature;humidity
73429;BME280;61643;49.564;17.412;2022-11-30T00:02:15;98902.31;;;-2.27;91.37
73429;BME280;61643;49.564;17.412;2022-11-30T00:04:40;98910.63;;;-2.48;91.34
73429;BME280;61643;49.564;17.412;2022-11-30T00:07:06;98904.84;;;-2.52;91.54
73429;BME280;61643;49.564;17.412;2022-11-30T00:09:31;98915.25;;;-2.50;92.13
73429;BME280;61643;49.564;17.412;2022-11-30T00:11:56;98908.38;;;-2.43;91.45
73429;BME280;61643;49.564;17.412;2022-11-30T00:14:21;98902.59;;;-2.38;91.68
73429;BME280;61643;49.564;17.412;2022-11-30T00:16:47;98898.94;;;-2.54;91.45
73429;BME280;61643;49.564;17.412;2022-11-30T00:19:12;98905.69;;;-2.51;91.82
73429;BME280;61643;49.564;17.412;2022-11-30T00:21:38;98909.16;;;-2.51;92.30
73429;BME280;61643;49.564;17.412;2022-11-30T00:24:04;98904.72;;;-2.50;92.48
73429;BME280;61643;49.564;17.412;2022-11-30T00:26:29;98898.94;;;-2.54;91.92
73429;BME280;61643;49.564;17.412;2022-11-30T00:28:55;98902.38;;;-2.53;91.54
73429;BME280;61643;49.564;17.412;2022-11-30T00:31:21;98896.63;;;-2.49;91.22
73429;BME280;61643;49.564;17.412;2022-11-30T00:33:47;98897.59;;;-2.58;92.09
73429;BME280;61643;49.564;17.412;2022-11-30T00:36:15;98908.63;;;-2.54;92.48
73429;BME280;61643;49.564;17.412;2022-11-30T00:38:41;98914.47;;;-2.42;91.83
73429;BME280;61643;49.564;17.412;2022-11-30T00:41:06;98918.09;;;-2.43;92.17
73429;BME280;61643;49.564;17.412;2022-11-30T00:43:32;98905.69;;;-2.51;91.09
73429;BME280;61643;49.564;17.412;2022-11-30T00:45:57;98908.97;;;-2.57;90.99
73429;BME280;61643;49.564;17.412;2022-11-30T00:48:23;98912.41;;;-2.57;90.75
73429;BME280;61643;49.564;17.412;2022-11-30T00:50:49;98904.59;;;-2.66;91.11
73429;BME280;61643;49.564;17.412;2022-11-30T00:53:15;98916.50;;;-2.62;90.67
73429;BME280;61643;49.564;17.412;2022-11-30T00:55:42;98905.25;;;-2.72;90.96
73429;BME280;61643;49.564;17.412;2022-11-30T00:58:08;98910.19;;;-2.69;90.92
73429;BME280;61643;49.564;17.412;2022-11-30T01:00:33;98913.34;;;-2.66;91.57
73429;BME280;61643;49.564;17.412;2022-11-30T01:02:58;98909.88;;;-2.66;92.50
73429;BME280;61643;49.564;17.412;2022-11-30T01:05:24;98908.97;;;-2.83;91.69
73429;BME280;61643;49.564;17.412;2022-11-30T01:07:50;98912.63;;;-2.76;93.52
73429;BME280;61643;49.564;17.412;2022-11-30T01:10:15;98909.75;;;-2.65;94.07
73429;BME280;61643;49.564;17.412;2022-11-30T01:12:41;98916.91;;;-2.75;94.28
73429;BME280;61643;49.564;17.412;2022-11-30T01:15:06;98913.97;;;-2.72;93.27
73429;BME280;61643;49.564;17.412;2022-11-30T01:17:32;98920.59;;;-2.68;92.49
73429;BME280;61643;49.564;17.412;2022-11-30T01:19:57;98918.19;;;-2.53;92.31
73429;BME280;61643;49.564;17.412;2022-11-30T01:22:23;98916.75;;;-2.47;91.62
73429;BME280;61643;49.564;17.412;2022-11-30T01:24:48;98928.66;;;-2.35;90.51
73429;BME280;61643;49.564;17.412;2022-11-30T01:27:14;98920.84;;;-2.45;90.42
73429;BME280;61643;49.564;17.412;2022-11-30T01:29:39;98928.63;;;-2.43;90.07
73429;BME280;61643;49.564;17.412;2022-11-30T01:32:04;98914.94;;;-2.47;90.43
73429;BME280;61643;49.564;17.412;2022-11-30T01:34:30;98923.50;;;-2.45;89.75
73429;BME280;61643;49.564;17.412;2022-11-30T01:36:55;98911.84;;;-2.42;89.48
73429;BME280;61643;49.564;17.412;2022-11-30T01:39:20;98923.16;;;-2.50;89.33
73429;BME280;61643;49.564;17.412;2022-11-30T01:41:46;98916.63;;;-2.72;90.23
73429;BME280;61643;49.564;17.412;2022-11-30T01:49:32;98918.41;;;-2.72;90.84
73429;BME280;61643;49.564;17.412;2022-11-30T01:52:04;98921.09;;;-2.64;90.09
73429;BME280;61643;49.564;17.412;2022-11-30T01:54:37;98923.69;;;-2.72;90.21
73429;BME280;61643;49.564;17.412;2022-11-30T01:57:17;98928.06;;;-2.81;90.72
73429;BME280;61643;49.564;17.412;2022-11-30T01:59:46;98924.16;;;-2.77;90.73
73429;BME280;61643;49.564;17.412;2022-11-30T02:02:12;98922.13;;;-2.83;90.13
73429;BME280;61643;49.564;17.412;2022-11-30T02:04:38;98921.81;;;-2.80;90.20
73429;BME280;61643;49.564;17.412;2022-11-30T02:07:05;98926.38;;;-2.90;89.91
73429;BME280;61643;49.564;17.412;2022-11-30T02:09:37;98925.63;;;-3.00;90.22
73429;BME280;61643;49.564;17.412;2022-11-30T02:12:07;98932.47;;;-3.07;90.58
73429;BME280;61643;49.564;17.412;2022-11-30T02:30:47;98918.41;;;-2.98;91.07
73429;BME280;61643;49.564;17.412;2022-11-30T02:33:17;98924.13;;;-3.03;90.25
73429;BME280;61643;49.564;17.412;2022-11-30T02:35:47;98925.28;;;-2.79;91.06
73429;BME280;61643;49.564;17.412;2022-11-30T02:38:14;98926.13;;;-2.79;90.89
73429;BME280;61643;49.564;17.412;2022-11-30T02:40:39;98923.56;;;-2.88;91.05
73429;BME280;61643;49.564;17.412;2022-11-30T02:43:05;98931.19;;;-3.03;91.40
73429;BME280;61643;49.564;17.412;2022-11-30T02:48:42;98930.03;;;-2.83;90.48
73429;BME280;61643;49.564;17.412;2022-11-30T02:51:13;98928.00;;;-2.89;90.82
73429;BME280;61643;49.564;17.412;2022-11-30T02:53:41;98931.00;;;-2.84;90.57
73429;BME280;61643;49.564;17.412;2022-11-30T02:56:07;98930.19;;;-2.84;90.87
73429;BME280;61643;49.564;17.412;2022-11-30T02:58:33;98930.59;;;-2.97;91.48
73429;BME280;61643;49.564;17.412;2022-11-30T03:00:58;98924.81;;;-3.01;91.03
73429;BME280;61643;49.564;17.412;2022-11-30T03:03:23;98926.66;;;-2.93;91.66
73429;BME280;61643;49.564;17.412;2022-11-30T03:05:49;98931.56;;;-2.98;90.99
73429;BME280;61643;49.564;17.412;2022-11-30T03:08:14;98927.22;;;-3.07;90.57
73429;BME280;61643;49.564;17.412;2022-11-30T03:10:39;98937.81;;;-2.99;91.08
73429;BME280;61643;49.564;17.412;2022-11-30T03:13:05;98935.44;;;-2.84;90.18
73429;BME280;61643;49.564;17.412;2022-11-30T03:15:30;98926.66;;;-2.93;89.87
73429;BME280;61643;49.564;17.412;2022-11-30T03:17:55;98927.72;;;-3.29;91.20
73429;BME280;61643;49.564;17.412;2022-11-30T03:20:25;98929.31;;;-3.36;92.98
73429;BME280;61643;49.564;17.412;2022-11-30T03:22:50;98932.59;;;-3.34;93.50
73429;BME280;61643;49.564;17.412;2022-11-30T03:25:15;98925.00;;;-3.20;92.91
73429;BME280;61643;49.564;17.412;2022-11-30T03:27:41;98937.38;;;-2.94;91.81
73429;BME280;61643;49.564;17.412;2022-11-30T03:30:06;98943.25;;;-3.01;93.06
73429;BME280;61643;49.564;17.412;2022-11-30T03:32:32;98931.63;;;-2.90;93.50
73429;BME280;61643;49.564;17.412;2022-11-30T03:34:58;98939.28;;;-2.79;93.28
73429;BME280;61643;49.564;17.412;2022-11-30T03:37:23;98933.91;;;-2.69;93.18
73429;BME280;61643;49.564;17.412;2022-11-30T03:39:49;98936.69;;;-2.45;93.41
73429;BME280;61643;49.564;17.412;2022-11-30T03:42:14;98932.41;;;-2.46;93.39
73429;BME280;61643;49.564;17.412;2022-11-30T03:44:39;98935.06;;;-2.38;92.99
73429;BME280;61643;49.564;17.412;2022-11-30T03:47:05;98921.88;;;-2.38;93.04
73429;BME280;61643;49.564;17.412;2022-11-30T03:49:30;98930.81;;;-2.31;92.52
73429;BME280;61643;49.564;17.412;2022-11-30T03:51:55;98926.69;;;-2.33;93.36
73429;BME280;61643;49.564;17.412;2022-11-30T03:54:21;98925.44;;;-2.21;93.40
73429;BME280;61643;49.564;17.412;2022-11-30T03:56:46;98931.72;;;-2.06;92.78
73429;BME280;61643;49.564;17.412;2022-11-30T03:59:14;98945.59;;;-2.04;93.79
73429;BME280;61643;49.564;17.412;2022-11-30T04:01:40;98965.13;;;-1.89;94.31
73429;BME280;61643;49.564;17.412;2022-11-30T04:04:05;98959.84;;;-1.89;94.34
73429;BME280;61643;49.564;17.412;2022-11-30T04:06:32;98975.16;;;-1.92;94.77
73429;BME280;61643;49.564;17.412;2022-11-30T04:08:57;98964.44;;;-1.91;94.86
73429;BME280;61643;49.564;17.412;2022-11-30T04:11:22;98963.66;;;-1.83;95.42
73429;BME280;61643;49.564;17.412;2022-11-30T04:13:48;98967.63;;;-1.79;95.62
73429;BME280;61643;49.564;17.412;2022-11-30T04:16:13;98963.66;;;-1.83;95.82
73429;BME280;61643;49.564;17.412;2022-11-30T04:18:38;98958.38;;;-1.83;96.45
73429;BME280;61643;49.564;17.412;2022-11-30T04:21:05;98970.94;;;-1.77;96.43
73429;BME280;61643;49.564;17.412;2022-11-30T04:23:33;98953.09;;;-1.83;96.19
73429;BME280;61643;49.564;17.412;2022-11-30T04:25:59;98962.00;;;-1.76;96.16
73429;BME280;61643;49.564;17.412;2022-11-30T04:28:24;98948.50;;;-1.81;96.15
73429;BME280;61643;49.564;17.412;2022-11-30T04:30:50;98944.72;;;-1.71;95.61
73429;BME280;61643;49.564;17.412;2022-11-30T04:33:16;98953.97;;;-1.67;96.28
73429;BME280;61643;49.564;17.412;2022-11-30T04:35:44;98955.63;;;-1.58;94.95
73429;BME280;61643;49.564;17.412;2022-11-30T04:38:11;98948.16;;;-1.78;96.27
73429;BME280;61643;49.564;17.412;2022-11-30T04:40:41;98957.41;;;-1.66;95.81
73429;BME280;61643;49.564;17.412;2022-11-30T04:43:07;98953.28;;;-1.77;95.76
73429;BME280;61643;49.564;17.412;2022-11-30T04:45:32;98957.94;;;-1.71;96.49
73429;BME280;61643;49.564;17.412;2022-11-30T04:47:58;98955.59;;;-1.66;95.94
73429;BME280;61643;49.564;17.412;2022-11-30T04:50:23;98966.03;;;-1.56;95.22
73429;BME280;61643;49.564;17.412;2022-11-30T04:52:49;98966.38;;;-1.51;95.61
73429;BME280;61643;49.564;17.412;2022-11-30T04:55:14;98940.47;;;-1.56;95.86
73429;BME280;61643;49.564;17.412;2022-11-30T04:57:43;98945.44;;;-1.53;95.61
73429;BME280;61643;49.564;17.412;2022-11-30T05:00:09;98949.22;;;-1.47;95.43
73429;BME280;61643;49.564;17.412;2022-11-30T05:02:34;98941.78;;;-1.60;95.67
73429;BME280;61643;49.564;17.412;2022-11-30T05:05:00;98936.63;;;-1.77;95.84
73429;BME280;61643;49.564;17.412;2022-11-30T05:07:25;98942.91;;;-1.70;95.59
73429;BME280;61643;49.564;17.412;2022-11-30T05:09:50;98937.75;;;-1.80;95.80
73429;BME280;61643;49.564;17.412;2022-11-30T05:12:16;98935.81;;;-1.78;95.45
73429;BME280;61643;49.564;17.412;2022-11-30T05:14:41;98935.47;;;-1.75;95.55
73429;BME280;61643;49.564;17.412;2022-11-30T05:17:06;98931.88;;;-1.74;94.92
73429;BME280;61643;49.564;17.412;2022-11-30T05:19:32;98922.91;;;-1.89;95.58
73429;BME280;61643;49.564;17.412;2022-11-30T05:21:57;98935.91;;;-1.95;95.84
73429;BME280;61643;49.564;17.412;2022-11-30T05:24:22;98943.47;;;-2.01;96.15
73429;BME280;61643;49.564;17.412;2022-11-30T05:26:48;98944.63;;;-1.95;95.52
73429;BME280;61643;49.564;17.412;2022-11-30T05:29:13;98941.84;;;-1.93;95.85
73429;BME280;61643;49.564;17.412;2022-11-30T05:31:38;98947.63;;;-1.90;95.50
73429;BME280;61643;49.564;17.412;2022-11-30T05:34:05;98953.59;;;-1.80;94.68
73429;BME280;61643;49.564;17.412;2022-11-30T05:36:30;98958.91;;;-1.72;93.78
73429;BME280;61643;49.564;17.412;2022-11-30T05:38:55;98961.34;;;-1.86;93.61
73429;BME280;61643;49.564;17.412;2022-11-30T05:41:21;98967.22;;;-2.01;94.36
73429;BME280;61643;49.564;17.412;2022-11-30T05:43:46;98970.53;;;-1.90;94.54
73429;BME280;61643;49.564;17.412;2022-11-30T05:46:12;98986.22;;;-1.89;93.85
73429;BME280;61643;49.564;17.412;2022-11-30T05:48:37;98986.69;;;-1.93;93.92
73429;BME280;61643;49.564;17.412;2022-11-30T05:51:15;98984.19;;;-2.03;95.40
73429;BME280;61643;49.564;17.412;2022-11-30T05:53:42;98986.16;;;-2.05;95.03
73429;BME280;61643;49.564;17.412;2022-11-30T05:56:12;98982.34;;;-2.11;95.32
73429;BME280;61643;49.564;17.412;2022-11-30T05:58:39;98984.97;;;-2.11;96.03
73429;BME280;61643;49.564;17.412;2022-11-30T06:01:05;98995.84;;;-2.06;95.14
73429;BME280;61643;49.564;17.412;2022-11-30T06:03:32;99000.31;;;-2.06;94.84
73429;BME280;61643;49.564;17.412;2022-11-30T06:05:58;98996.22;;;-2.01;93.97
73429;BME280;61643;49.564;17.412;2022-11-30T06:08:24;99004.28;;;-2.02;94.23
73429;BME280;61643;49.564;17.412;2022-11-30T06:10:50;99000.47;;;-2.08;93.78
73429;BME280;61643;49.564;17.412;2022-11-30T06:13:16;99003.25;;;-2.17;93.93
73429;BME280;61643;49.564;17.412;2022-11-30T06:15:41;99004.81;;;-2.32;94.04
73429;BME280;61643;49.564;17.412;2022-11-30T06:18:08;99002.47;;;-2.35;94.00
73429;BME280;61643;49.564;17.412;2022-11-30T06:20:35;99010.06;;;-2.32;94.27
73429;BME280;61643;49.564;17.412;2022-11-30T06:23:00;99005.13;;;-2.35;94.39
73429;BME280;61643;49.564;17.412;2022-11-30T06:25:26;99005.88;;;-2.43;93.58
73429;BME280;61643;49.564;17.412;2022-11-30T06:27:52;99020.25;;;-2.37;94.41
73429;BME280;61643;49.564;17.412;2022-11-30T06:30:18;99018.56;;;-2.46;94.39
73429;BME280;61643;49.564;17.412;2022-11-30T06:32:48;99021.72;;;-2.35;94.13
73429;BME280;61643;49.564;17.412;2022-11-30T06:35:14;99012.34;;;-2.37;92.81
73429;BME280;61643;49.564;17.412;2022-11-30T06:37:40;99027.13;;;-2.44;92.81
73429;BME280;61643;49.564;17.412;2022-11-30T06:40:06;99029.09;;;-2.46;93.40
73429;BME280;61643;49.564;17.412;2022-11-30T06:42:31;99027.84;;;-2.34;93.04
73429;BME280;61643;49.564;17.412;2022-11-30T06:44:57;99022.69;;;-2.44;93.04
73429;BME280;61643;49.564;17.412;2022-11-30T06:47:23;99024.34;;;-2.43;92.85
73429;BME280;61643;49.564;17.412;2022-11-30T06:49:48;99024.66;;;-2.64;94.07
73429;BME280;61643;49.564;17.412;2022-11-30T06:52:13;99028.19;;;-2.55;94.22
73429;BME280;61643;49.564;17.412;2022-11-30T06:54:39;99025.56;;;-2.55;93.13
73429;BME280;61643;49.564;17.412;2022-11-30T06:57:04;99029.03;;;-2.55;94.18
73429;BME280;61643;49.564;17.412;2022-11-30T06:59:30;99032.84;;;-2.49;93.79
73429;BME280;61643;49.564;17.412;2022-11-30T07:01:55;99026.53;;;-2.56;94.06
73429;BME280;61643;49.564;17.412;2022-11-30T07:04:20;99038.50;;;-2.44;94.25
73429;BME280;61643;49.564;17.412;2022-11-30T07:06:46;99026.81;;;-2.41;93.98
73429;BME280;61643;49.564;17.412;2022-11-30T07:09:11;99024.28;;;-2.25;93.36
73429;BME280;61643;49.564;17.412;2022-11-30T07:11:38;99032.41;;;-2.19;92.35
73429;BME280;61643;49.564;17.412;2022-11-30T07:14:03;99035.16;;;-2.20;93.14
73429;BME280;61643;49.564;17.412;2022-11-30T07:16:28;99030.53;;;-2.26;93.30
73429;BME280;61643;49.564;17.412;2022-11-30T07:18:54;99029.69;;;-2.27;93.77
73429;BME280;61643;49.564;17.412;2022-11-30T07:21:19;99034.13;;;-2.27;94.13
73429;BME280;61643;49.564;17.412;2022-11-30T07:23:44;99036.31;;;-2.49;95.45
73429;BME280;61643;49.564;17.412;2022-11-30T07:26:28;99039.97;;;-2.41;95.53
73429;BME280;61643;49.564;17.412;2022-11-30T07:28:54;99032.19;;;-2.25;94.82
73429;BME280;61643;49.564;17.412;2022-11-30T07:31:32;99046.16;;;-2.33;94.94
73429;BME280;61643;49.564;17.412;2022-11-30T07:34:06;99034.91;;;-2.35;95.49
73429;BME280;61643;49.564;17.412;2022-11-30T07:36:32;99035.03;;;-2.44;95.63
73429;BME280;61643;49.564;17.412;2022-11-30T07:38:57;99027.78;;;-2.17;95.13
73429;BME280;61643;49.564;17.412;2022-11-30T07:41:23;99040.59;;;-1.96;94.41
73429;BME280;61643;49.564;17.412;2022-11-30T07:43:48;99037.47;;;-1.91;93.72
73429;BME280;61643;49.564;17.412;2022-11-30T07:46:15;99040.75;;;-1.98;94.67
73429;BME280;61643;49.564;17.412;2022-11-30T07:48:41;99040.22;;;-2.01;94.95
73429;BME280;61643;49.564;17.412;2022-11-30T07:51:11;99041.56;;;-1.97;94.95
73429;BME280;61643;49.564;17.412;2022-11-30T07:53:37;99046.53;;;-1.94;95.87
73429;BME280;61643;49.564;17.412;2022-11-30T07:56:08;99050.75;;;-1.75;95.40
73429;BME280;61643;49.564;17.412;2022-11-30T07:58:34;99051.72;;;-1.76;95.67
73429;BME280;61643;49.564;17.412;2022-11-30T08:01:11;99050.47;;;-1.64;95.63
73429;BME280;61643;49.564;17.412;2022-11-30T08:03:37;99050.25;;;-1.79;96.45
73429;BME280;61643;49.564;17.412;2022-11-30T08:06:23;99051.91;;;-1.70;95.64
73429;BME280;61643;49.564;17.412;2022-11-30T08:08:51;99053.28;;;-1.58;95.82
73429;BME280;61643;49.564;17.412;2022-11-30T08:11:21;99042.09;;;-1.52;95.67
73429;BME280;61643;49.564;17.412;2022-11-30T08:13:47;99046.75;;;-1.37;95.34
73429;BME280;61643;49.564;17.412;2022-11-30T08:16:15;99042.16;;;-1.35;96.06
73429;BME280;61643;49.564;17.412;2022-11-30T08:18:41;99042.66;;;-1.32;95.42
73429;BME280;61643;49.564;17.412;2022-11-30T08:21:08;99044.00;;;-1.28;95.64
73429;BME280;61643;49.564;17.412;2022-11-30T08:23:37;99040.88;;;-1.23;95.84
73429;BME280;61643;49.564;17.412;2022-11-30T08:26:07;99045.53;;;-1.09;95.20
73429;BME280;61643;49.564;17.412;2022-11-30T08:28:34;99044.69;;;-1.10;95.36
73429;BME280;61643;49.564;17.412;2022-11-30T08:31:05;99035.47;;;-1.06;95.11
73429;BME280;61643;49.564;17.412;2022-11-30T08:33:32;99046.00;;;-0.98;94.10
73429;BME280;61643;49.564;17.412;2022-11-30T08:38:32;99056.13;;;-0.77;94.89
73429;BME280;61643;49.564;17.412;2022-11-30T08:40:57;99054.31;;;-0.76;94.50
73429;BME280;61643;49.564;17.412;2022-11-30T08:43:23;99053.47;;;-0.61;93.89
73429;BME280;61643;49.564;17.412;2022-11-30T08:45:48;99055.97;;;-0.59;93.90
73429;BME280;61643;49.564;17.412;2022-11-30T08:48:14;99050.50;;;-0.50;93.36
73429;BME280;61643;49.564;17.412;2022-11-30T08:50:39;99065.19;;;-0.47;93.08
73429;BME280;61643;49.564;17.412;2022-11-30T08:53:04;99060.44;;;-0.43;93.06
73429;BME280;61643;49.564;17.412;2022-11-30T08:55:30;99064.38;;;-0.31;93.19
73429;BME280;61643;49.564;17.412;2022-11-30T08:57:55;99068.00;;;-0.32;92.75
73429;BME280;61643;49.564;17.412;2022-11-30T09:00:20;99072.66;;;-0.26;91.19
73429;BME280;61643;49.564;17.412;2022-11-30T09:02:46;99078.75;;;-0.26;92.48
73429;BME280;61643;49.564;17.412;2022-11-30T09:05:11;99069.66;;;-0.23;92.52
73429;BME280;61643;49.564;17.412;2022-11-30T09:07:37;99076.41;;;-0.05;91.45
73429;BME280;61643;49.564;17.412;2022-11-30T09:10:02;99091.13;;;-0.02;91.16
73429;BME280;61643;49.564;17.412;2022-11-30T09:12:28;99082.06;;;-0.08;89.23
73429;BME280;61643;49.564;17.412;2022-11-30T09:14:53;99085.13;;;0.12;89.35
73429;BME280;61643;49.564;17.412;2022-11-30T09:17:18;99083.59;;;0.26;89.44
73429;BME280;61643;49.564;17.412;2022-11-30T09:19:44;99078.84;;;0.21;89.36
73429;BME280;61643;49.564;17.412;2022-11-30T09:22:09;99084.25;;;0.36;89.08
73429;BME280;61643;49.564;17.412;2022-11-30T09:24:34;99080.47;;;0.30;89.27
73429;BME280;61643;49.564;17.412;2022-11-30T09:27:02;99081.28;;;0.31;87.99
73429;BME280;61643;49.564;17.412;2022-11-30T09:29:27;99078.28;;;0.34;89.21
73429;BME280;61643;49.564;17.412;2022-11-30T09:31:53;99082.91;;;0.40;88.99
73429;BME280;61643;49.564;17.412;2022-11-30T09:34:18;99084.91;;;0.38;89.07
73429;BME280;61643;49.564;17.412;2022-11-30T09:36:43;99087.19;;;0.49;88.15
73429;BME280;61643;49.564;17.412;2022-11-30T09:39:09;99084.50;;;0.57;87.35
73429;BME280;61643;49.564;17.412;2022-11-30T09:44:53;99073.44;;;0.54;88.91
73429;BME280;61643;49.564;17.412;2022-11-30T09:47:43;99073.13;;;0.48;88.89
73429;BME280;61643;49.564;17.412;2022-11-30T09:50:20;99068.50;;;0.42;88.56
73429;BME280;61643;49.564;17.412;2022-11-30T09:52:50;99068.13;;;0.54;88.39
73429;BME280;61643;49.564;17.412;2022-11-30T09:55:25;99065.00;;;0.50;87.83
73429;BME280;61643;49.564;17.412;2022-11-30T09:57:55;99062.66;;;0.55;88.33
73429;BME280;61643;49.564;17.412;2022-11-30T10:00:23;99066.88;;;0.33;88.30
73429;BME280;61643;49.564;17.412;2022-11-30T10:02:50;99061.91;;;0.38;88.82
73429;BME280;61643;49.564;17.412;2022-11-30T10:05:42;99056.13;;;0.35;89.49
73429;BME280;61643;49.564;17.412;2022-11-30T10:08:29;99063.59;;;0.23;89.34
73429;BME280;61643;49.564;17.412;2022-11-30T10:24:03;98996.34;;;0.71;88.98
73429;BME280;61643;49.564;17.412;2022-11-30T10:26:34;99003.91;;;0.82;89.23
73429;BME280;61643;49.564;17.412;2022-11-30T10:29:32;99015.97;;;0.85;89.80
73429;BME280;61643;49.564;17.412;2022-11-30T10:34:50;99019.94;;;0.89;89.45
73429;BME280;61643;49.564;17.412;2022-11-30T10:37:21;99025.19;;;0.97;89.48
73429;BME280;61643;49.564;17.412;2022-11-30T10:40:02;99030.00;;;1.16;88.72
73429;BME280;61643;49.564;17.412;2022-11-30T10:42:37;99022.94;;;1.31;88.75
73429;BME280;61643;49.564;17.412;2022-11-30T10:45:17;99024.16;;;1.43;87.78
73429;BME280;61643;49.564;17.412;2022-11-30T10:50:15;99027.84;;;1.57;87.99
73429;BME280;61643;49.564;17.412;2022-11-30T10:52:47;99023.00;;;1.61;87.59
73429;BME280;61643;49.564;17.412;2022-11-30T10:55:20;99024.00;;;1.60;87.62
73429;BME280;61643;49.564;17.412;2022-11-30T10:57:48;99028.50;;;1.59;86.92
73429;BME280;61643;49.564;17.412;2022-11-30T11:00:15;99020.34;;;1.61;86.92
73429;BME280;61643;49.564;17.412;2022-11-30T11:02:45;99032.09;;;1.66;86.78
73429;BME280;61643;49.564;17.412;2022-11-30T11:10:19;99047.00;;;1.82;88.73
73429;BME280;61643;49.564;17.412;2022-11-30T11:12:47;99033.13;;;1.94;86.39
73429;BME280;61643;49.564;17.412;2022-11-30T11:15:27;99032.22;;;2.02;84.69
73429;BME280;61643;49.564;17.412;2022-11-30T11:18:31;99036.34;;;2.05;85.77
73429;BME280;61643;49.564;17.412;2022-11-30T11:21:19;99034.22;;;2.00;87.50
73429;BME280;61643;49.564;17.412;2022-11-30T11:23:46;99025.25;;;2.01;87.84
73429;BME280;61643;49.564;17.412;2022-11-30T11:26:23;99024.06;;;2.04;87.01
73429;BME280;61643;49.564;17.412;2022-11-30T11:28:50;99023.50;;;1.93;87.69
73429;BME280;61643;49.564;17.412;2022-11-30T11:31:31;99022.44;;;2.03;87.03
73429;BME280;61643;49.564;17.412;2022-11-30T11:33:58;99011.63;;;2.04;85.19
73429;BME280;61643;49.564;17.412;2022-11-30T11:36:26;99014.34;;;1.96;86.49
73429;BME280;61643;49.564;17.412;2022-11-30T11:38:52;99009.50;;;1.99;86.64
73429;BME280;61643;49.564;17.412;2022-11-30T11:41:22;99022.69;;;2.08;87.40
73429;BME280;61643;49.564;17.412;2022-11-30T11:43:59;99012.34;;;1.98;87.42
73429;BME280;61643;49.564;17.412;2022-11-30T11:46:25;99016.19;;;1.95;86.48
73429;BME280;61643;49.564;17.412;2022-11-30T11:49:00;99010.97;;;1.87;87.39
73429;BME280;61643;49.564;17.412;2022-11-30T11:51:38;99012.59;;;1.88;87.73
73429;BME280;61643;49.564;17.412;2022-11-30T11:54:22;99019.66;;;1.96;87.48
73429;BME280;61643;49.564;17.412;2022-11-30T11:56:50;99011.31;;;1.99;86.73
73429;BME280;61643;49.564;17.412;2022-11-30T12:02:10;99002.91;;;1.95;87.28
73429;BME280;61643;49.564;17.412;2022-11-30T12:04:45;98998.78;;;1.93;87.01
73429;BME280;61643;49.564;17.412;2022-11-30T12:10:41;98992.84;;;1.91;87.16
73429;BME280;61643;49.564;17.412;2022-11-30T12:13:14;98997.06;;;2.00;86.69
73429;BME280;61643;49.564;17.412;2022-11-30T12:18:37;98989.06;;;2.29;86.37
73429;BME280;61643;49.564;17.412;2022-11-30T12:27:02;99000.97;;;2.48;86.08
73429;BME280;61643;49.564;17.412;2022-11-30T12:40:25;99005.75;;;2.38;87.86
73429;BME280;61643;49.564;17.412;2022-11-30T12:50:35;98999.31;;;2.32;87.07
73429;BME280;61643;49.564;17.412;2022-11-30T12:53:08;99003.19;;;2.30;87.23
73429;BME280;61643;49.564;17.412;2022-11-30T13:09:04;99002.19;;;2.16;89.02
73429;BME280;61643;49.564;17.412;2022-11-30T13:11:35;99003.38;;;2.14;88.41
73429;BME280;61643;49.564;17.412;2022-11-30T13:14:01;98995.06;;;2.02;89.16
73429;BME280;61643;49.564;17.412;2022-11-30T13:16:28;98992.13;;;1.97;89.71
73429;BME280;61643;49.564;17.412;2022-11-30T13:19:03;98997.44;;;1.97;88.97
73429;BME280;61643;49.564;17.412;2022-11-30T13:21:36;98985.72;;;1.91;88.51
73429;BME280;61643;49.564;17.412;2022-11-30T13:24:15;98995.75;;;1.81;90.28
73429;BME280;61643;49.564;17.412;2022-11-30T13:26:58;98985.97;;;1.82;89.35
73429;BME280;61643;49.564;17.412;2022-11-30T13:29:45;98985.72;;;1.91;89.28
73429;BME280;61643;49.564;17.412;2022-11-30T13:32:16;98981.88;;;1.94;89.27
73429;BME280;61643;49.564;17.412;2022-11-30T13:34:42;98980.22;;;1.93;89.85
73429;BME280;61643;49.564;17.412;2022-11-30T13:37:17;98979.13;;;1.87;90.28
73429;BME280;61643;49.564;17.412;2022-11-30T13:39:53;98976.56;;;1.94;90.07
73429;BME280;61643;49.564;17.412;2022-11-30T13:44:50;98979.00;;;1.95;89.21
73429;BME280;61643;49.564;17.412;2022-11-30T13:47:30;98985.81;;;1.98;89.84
73429;BME280;61643;49.564;17.412;2022-11-30T13:50:00;98987.72;;;2.04;89.16
73429;BME280;61643;49.564;17.412;2022-11-30T14:02:54;98987.44;;;1.99;89.18
73429;BME280;61643;49.564;17.412;2022-11-30T14:10:27;98994.84;;;2.04;89.39
73429;BME280;61643;49.564;17.412;2022-11-30T14:23:25;98984.25;;;1.89;89.84
73429;BME280;61643;49.564;17.412;2022-11-30T14:25:54;98990.75;;;1.86;89.90
73429;BME280;61643;49.564;17.412;2022-11-30T14:28:23;98973.81;;;1.87;89.84
73429;BME280;61643;49.564;17.412;2022-11-30T14:30:50;98980.22;;;1.78;90.59
73429;BME280;61643;49.564;17.412;2022-11-30T14:33:26;98979.66;;;1.83;90.54
73429;BME280;61643;49.564;17.412;2022-11-30T14:35:56;98977.28;;;1.73;90.90
73429;BME280;61643;49.564;17.412;2022-11-30T14:38:29;98982.47;;;1.67;91.08
73429;BME280;61643;49.564;17.412;2022-11-30T14:40:58;98985.31;;;1.65;90.90
73429;BME280;61643;49.564;17.412;2022-11-30T14:43:23;98981.91;;;1.57;91.08
73429;BME280;61643;49.564;17.412;2022-11-30T14:45:55;98979.72;;;1.60;91.41
73429;BME280;61643;49.564;17.412;2022-11-30T14:48:21;98992.81;;;1.62;91.48
73429;BME280;61643;49.564;17.412;2022-11-30T14:50:49;98995.53;;;1.54;91.15
73429;BME280;61643;49.564;17.412;2022-11-30T14:56:21;98993.31;;;1.42;92.67
73429;BME280;61643;49.564;17.412;2022-11-30T14:58:59;98995.84;;;1.59;91.89
73429;BME280;61643;49.564;17.412;2022-11-30T15:01:30;99006.53;;;1.51;92.16
73429;BME280;61643;49.564;17.412;2022-11-30T15:04:12;99003.94;;;1.42;92.08
73429;BME280;61643;49.564;17.412;2022-11-30T15:06:40;99011.63;;;1.52;92.20
73429;BME280;61643;49.564;17.412;2022-11-30T15:09:15;99015.56;;;1.56;91.66
73429;BME280;61643;49.564;17.412;2022-11-30T15:11:42;99014.94;;;1.54;91.13